createdAt,value
2023-03-16T00:01:57.925Z,4.65
2023-03-16T01:00:15.151Z,0.50
2023-03-16T01:04:15.223Z,0.34
2023-03-16T07:04:22.071Z,0.61
2023-03-16T07:48:25.164Z,0.70
2023-03-16T12:16:27.559Z,0.78
2023-03-16T12:20:26.056Z,0.73
2023-03-16T12:24:25.736Z,0.75
2023-03-16T12:28:26.051Z,0.59
2023-03-16T12:32:26.171Z,0.60
2023-03-16T12:40:25.801Z,0.55
2023-03-16T13:16:26.050Z,0.58
2023-03-16T13:24:25.962Z,0.50
2023-03-16T13:32:26.623Z,0.56
2023-03-16T13:36:26.257Z,0.63
2023-03-16T15:32:29.200Z,0.59
2023-03-16T15:36:28.936Z,0.60
2023-03-16T15:40:29.356Z,0.65
2023-03-16T16:24:29.936Z,1.59
2023-03-16T16:28:30.133Z,1.95
2023-03-16T16:32:30.163Z,2.03
2023-03-16T16:36:30.143Z,2.45
2023-03-16T16:40:30.237Z,2.77
2023-03-16T16:44:33.451Z,2.97
2023-03-16T16:48:30.315Z,3.25
2023-03-16T16:52:30.334Z,3.70
2023-03-16T16:56:30.379Z,3.88
2023-03-16T17:00:30.648Z,4.29
2023-03-16T17:04:30.405Z,4.54
2023-03-16T22:40:39.597Z,4.61
2023-03-16T22:44:39.731Z,4.55
2023-03-16T22:48:39.897Z,4.48
2023-03-16T22:52:40.018Z,4.45
2023-03-16T22:56:40.146Z,4.39
2023-03-16T23:00:40.377Z,4.44
2023-03-16T23:04:40.491Z,4.38
2023-03-16T23:08:40.552Z,4.30
2023-03-16T23:12:40.683Z,4.26
2023-03-16T23:16:40.869Z,4.24
2023-03-16T23:20:40.992Z,4.17
2023-03-16T23:24:41.082Z,4.16
2023-03-16T23:28:41.212Z,4.11
2023-03-16T23:32:41.409Z,4.07
2023-03-16T23:36:41.512Z,4.06
2023-03-16T23:40:41.633Z,4.01
2023-03-16T23:44:41.755Z,3.97
2023-03-16T23:48:41.926Z,3.95
2023-03-16T23:52:42.080Z,3.87
2023-03-16T23:56:42.190Z,3.88
